Detalii statie BONGA [00001D00]

Toti senzorii

Date Temperatura solului [C]Precipitatii [mm]Voltaj baterie [mV]Leaf Wetness [Min]HC Air temperature [C]HC Relative humidity [%]Punctul de roua [C]
medieminmaxsumaultimatimpmedieminmaxmediemediemin
2018-08-12 11:00:00 23.5 23 24.2 0 7332 26.5 24.6 28.34 4.54 0
2018-08-12 12:00:00 25.3 24.2 26.6 0 7332 27.31 26.68 28.31 0 0 0
2018-08-12 13:00:00 26.8 26.6 27 0 7332 28.28 27.8 29.34 8.29 2.8 0
2018-08-12 14:00:00 26.9 26.8 27 0 7332 29.22 28.81 29.62 0 0 0
2018-08-12 15:00:00 27.6 27.4 27.9 0 7314 29.65 29.21 30.32 0 0 0
2018-08-12 16:00:00 27.9 27.7 28.2 0 7314 30.17 29.83 30.48 0 0 0
2018-08-12 17:00:00 26.4 25.3 27.4 0 7304 30.06 29.45 30.75 31.42 0
2018-08-12 18:00:00 24.2 24.1 24.3 0 7314 28.25 27.53 28.63 25.52 0
2018-08-12 19:00:00 23.7 23.4 24.1 0 6982 24.35 21.66 26.81 3.28 0
2018-08-12 20:00:00 22.8 22.4 23.2 0 6962 19.83 18.99 21.23 0 0 0
2018-08-12 21:00:00 22 21.8 22.3 0 6952 18.16 17.4 18.85 0 0 0
2018-08-12 22:00:00 21.4 21.2 21.7 0 6932 17.19 16.76 17.83 0 0 0
2018-08-12 23:00:00 21 21 21.3 0 6922 16.83 16.4 17.18 0 0 0
2018-08-13 00:00:00 20.7 20.6 20.9 0 6922 16.19 15.86 16.67 0 0 0
2018-08-13 01:00:00 20.4 20.2 20.5 0 6904 15.85 15.09 16.39 0 0 0
2018-08-13 02:00:00 20 19.9 20.2 0 6894 15.15 14.9 15.47 0 0 0
2018-08-13 03:00:00 19.7 19.6 20 0 6894 14.69 14.11 15.37 0 0 0
2018-08-13 04:00:00 19.4 19.4 19.7 0 6894 14.36 13.81 14.75 0 0 0
2018-08-13 05:00:00 19.2 19.1 19.5 0 6884 14.14 13.5 14.83 0 0 0
2018-08-13 06:00:00 19 19 19.2 0 6962 14.68 13.49 16.12 0 0 0
2018-08-13 07:00:00 19.6 19.3 20 0 7342 16.57 15.71 17.67 0 0 0
2018-08-13 08:00:00 20.3 20.2 20.7 0 7342 19.11 18.05 20.56 0 0 0
2018-08-13 09:00:00 21.2 20.8 21.8 0 7342 23.73 21.01 25.99 24.39 6.5 0
2018-08-13 10:00:00 22.6 21.9 23.4 0 7332 27.19 25.66 28.72 80.53 23.3 21.2
2018-08-13 11:00:00 24.3 23.5 25 0 7332 29.9 29.11 30.54 54.4 19.4 17.6
2018-08-13 12:00:00 26 25.2 26.7 0 7332 30.93 30.41 31.14 35.42 13.7 0
2018-08-13 13:00:00 27.4 26.9 27.9 0 7332 31.57 31.04 32.22 46.32 18.4 17.3
2018-08-13 14:00:00 27.9 27.7 28.1 0 7332 31.71 29.6 32.74 11.43 0
2018-08-13 15:00:00 28 27.9 28.3 0 7246 31.62 30.95 32.48 0 0 0
2018-08-13 16:00:00 27.9 27.4 28.6 0 7186 31.06 29.25 32.21 0 0 0
2018-08-13 17:00:00 26.9 26.3 27.4 0 7166 31.02 30.27 31.76 0 0 0
2018-08-13 18:00:00 25.6 25.3 26.1 0 7314 29.49 28.54 30.12 0 0 0
2018-08-13 19:00:00 24.8 24.3 25.2 0 6982 26.57 24.8 28.32 0 0 0
2018-08-13 20:00:00 23.8 23.4 24.6 0 6962 22.83 21.65 24.34 0 0 0
2018-08-13 21:00:00 23 22.7 23.3 0 6952 20.85 20.17 21.43 0 0 0
2018-08-13 22:00:00 22.3 22.1 22.6 0 6932 19.85 19.39 20.2 0 0 0
2018-08-13 23:00:00 22 21.8 22.3 0 6932 19.02 18.53 19.56 0 0 0
2018-08-14 00:00:00 21.6 21.4 21.8 0 6914 18.54 18.25 18.9 0 0 0
2018-08-14 01:00:00 21.2 21 21.4 0 6904 17.67 16.65 18.45 0 0 0
2018-08-14 02:00:00 20.9 20.7 21 0 6904 17.1 16.13 17.83 0 0 0
2018-08-14 03:00:00 20.4 20.2 20.6 0 6904 15.52 15.18 15.94 0 0 0
2018-08-14 04:00:00 20 19.9 20.3 0 6894 15.09 14.51 15.54 0 0 0
2018-08-14 05:00:00 19.7 19.6 19.9 0 6894 14.98 14.76 15.24 0 0 0
2018-08-14 06:00:00 19.6 19.5 19.8 0 6962 15.13 14.27 16.56 0 0 0
2018-08-14 07:00:00 20.1 19.9 20.5 0 7342 18.23 16.81 20.39 0 0 0
2018-08-14 08:00:00 20.7 20.4 21 0 7342 22.08 20.6 23.31 0 0 0
2018-08-14 09:00:00 21.4 21 21.9 0 7342 25 23.45 26.43 0 0 0
2018-08-14 10:00:00 22.6 22 23.4 0 7332 27.49 26.35 28.77 0 0 0